Crossville Memorial Whitson Field
KCSV : now visible

Airfield :











YOU CAN JOIN US ON...

 
LOGIN :

Register | Disclaimer

   EN    FR    IT 

 









Legend :    VFR   Marginal VFR   IFR   Intensive IFR   Very Intensive IFR
Visi :
Ceiling :
>= 8 km
>= 3000ft
5 to 8 km
1000 to 3000 ft
1500m to 5 km
500 to 1000 ft
800 to 1500m
200 to 500 ft
< 800m
< 200 ft
Symbols :   Thunderstorms  Fog  Heavy snow  Heavy precipitations  Wind > 20 kt






- Airport Elevation : 1881 ft


KCSV - Crossville Memorial Whitson Field

CURRENT METAR :
  • 232253Z AUTO 34003KT 8SM CLR 28/19 A3014 RMK AO2 SLP185 T02780189

EXPIRED METARs :
  • 232153Z AUTO 03005KT 8SM BKN047 28/19 A3015 RMK AO2 SLP190 T02780189
  • 232053Z AUTO 32004KT 8SM CLR 28/18 A3016 RMK AO2 SLP193 T02780183 58014

TAF KCSV
Valid from the 23 at 18:00 until the 24 at 18:00 UTC


231720Z 2318/2418 VRB03KT 6SM HZ FEW030 FEW250
FM240700 00000KT 4SM BR SKC
TEMPO 2408/2412 1SM BR FEW015
FM241300 VRB04KT 6SM HZ SCT250
KZTL FIR / North America



MET'MAP, your aeronautical weather chart ! - Copyright ORBIFLY December 2007 - Disclaimer

ORBIFLY MET'MAP TEAM :

Programming & Development : Alexandra Zaïnal
Concept & original design : Baudouin d'Aumeries
Assistance for programming : Marc-Olivier Méhu
Technical & hardware support : Manuel Goepfert

Contact : metmap@orbifly.com




SOURCES & CREDITS :

   NOAA       Earth
Advisory